Kingfield, Tennessee
Current Conditions -  °F | °C
As of 9:53 AM on Monday 24 Nov 2014 (Local Time) from KBNA Reporting Station
Broken Clouds Broken Clouds  
Wind Chill: 57°   Ceiling: 3700
Heat Index: 57°   Visibility: 10mi
Dew Point: 43°   Wind: 21mph
Humidity: 59%   Direction: 260°W
Pressure: 29.75"   Gusts: 32mph
Location:  35.8909°N, 86.9583°W
Report Text: KBNA 241553Z 26018G28KT 10SM FEW032 BKN037 14/06 A2975 RMK AO2 PK WND 24031/1505 SLP069 T01390061
Loading
Personal Weather Stations






























Interactive Weather Map New forecast layout! Learn more

10-Day Weather Forecast

Advertisements
Track Severe Weather on mobile